sensor_id;sensor_type;location;lat;lon;timestamp;P1;durP1;ratioP1;P2;durP2;ratioP2
55007;SDS011;40902;45.116;21.296;2022-12-10T00:00:36;14.93;;;8.25;;
55007;SDS011;40902;45.116;21.296;2022-12-10T00:03:02;11.90;;;7.28;;
55007;SDS011;40902;45.116;21.296;2022-12-10T00:05:29;12.48;;;7.85;;
55007;SDS011;40902;45.116;21.296;2022-12-10T00:07:57;13.55;;;6.85;;
55007;SDS011;40902;45.116;21.296;2022-12-10T00:10:23;12.77;;;7.05;;
55007;SDS011;40902;45.116;21.296;2022-12-10T00:12:49;13.02;;;6.90;;
55007;SDS011;40902;45.116;21.296;2022-12-10T00:15:14;13.50;;;7.35;;
55007;SDS011;40902;45.116;21.296;2022-12-10T00:17:41;13.48;;;7.10;;
55007;SDS011;40902;45.116;21.296;2022-12-10T00:20:07;16.67;;;6.53;;
55007;SDS011;40902;45.116;21.296;2022-12-10T00:22:34;11.07;;;6.28;;
55007;SDS011;40902;45.116;21.296;2022-12-10T00:25:00;14.43;;;6.82;;
55007;SDS011;40902;45.116;21.296;2022-12-10T00:27:26;15.07;;;6.50;;
55007;SDS011;40902;45.116;21.296;2022-12-10T00:29:51;13.18;;;6.72;;
55007;SDS011;40902;45.116;21.296;2022-12-10T00:32:17;15.48;;;7.38;;
55007;SDS011;40902;45.116;21.296;2022-12-10T00:34:43;14.15;;;6.95;;
55007;SDS011;40902;45.116;21.296;2022-12-10T00:37:08;11.32;;;6.93;;
55007;SDS011;40902;45.116;21.296;2022-12-10T00:39:34;12.23;;;6.45;;
55007;SDS011;40902;45.116;21.296;2022-12-10T00:42:00;12.98;;;6.57;;
55007;SDS011;40902;45.116;21.296;2022-12-10T00:44:25;12.50;;;6.53;;
55007;SDS011;40902;45.116;21.296;2022-12-10T00:46:51;15.00;;;6.82;;
55007;SDS011;40902;45.116;21.296;2022-12-10T00:49:17;14.88;;;7.88;;
55007;SDS011;40902;45.116;21.296;2022-12-10T00:51:42;17.38;;;9.20;;
55007;SDS011;40902;45.116;21.296;2022-12-10T00:54:08;16.17;;;7.28;;
55007;SDS011;40902;45.116;21.296;2022-12-10T00:56:36;12.30;;;7.03;;
55007;SDS011;40902;45.116;21.296;2022-12-10T00:59:01;13.95;;;7.47;;
55007;SDS011;40902;45.116;21.296;2022-12-10T01:01:29;11.27;;;7.50;;
55007;SDS011;40902;45.116;21.296;2022-12-10T01:04:01;12.65;;;6.72;;
55007;SDS011;40902;45.116;21.296;2022-12-10T01:06:30;11.43;;;6.63;;
55007;SDS011;40902;45.116;21.296;2022-12-10T01:09:02;15.82;;;7.50;;
55007;SDS011;40902;45.116;21.296;2022-12-10T01:11:30;11.48;;;7.03;;
55007;SDS011;40902;45.116;21.296;2022-12-10T01:13:59;13.00;;;7.28;;
55007;SDS011;40902;45.116;21.296;2022-12-10T01:16:25;14.07;;;6.78;;
55007;SDS011;40902;45.116;21.296;2022-12-10T01:18:58;14.55;;;6.25;;
55007;SDS011;40902;45.116;21.296;2022-12-10T01:21:25;13.65;;;7.20;;
55007;SDS011;40902;45.116;21.296;2022-12-10T01:23:52;11.55;;;6.85;;
55007;SDS011;40902;45.116;21.296;2022-12-10T01:26:19;12.75;;;6.60;;
55007;SDS011;40902;45.116;21.296;2022-12-10T01:28:47;12.98;;;7.70;;
55007;SDS011;40902;45.116;21.296;2022-12-10T01:33:46;16.33;;;7.18;;
55007;SDS011;40902;45.116;21.296;2022-12-10T01:36:14;14.25;;;7.50;;
55007;SDS011;40902;45.116;21.296;2022-12-10T01:38:47;12.02;;;7.03;;
55007;SDS011;40902;45.116;21.296;2022-12-10T01:41:14;11.98;;;7.07;;
55007;SDS011;40902;45.116;21.296;2022-12-10T01:46:18;17.20;;;7.07;;
55007;SDS011;40902;45.116;21.296;2022-12-10T01:48:44;14.15;;;7.95;;
55007;SDS011;40902;45.116;21.296;2022-12-10T01:51:11;11.75;;;7.13;;
55007;SDS011;40902;45.116;21.296;2022-12-10T01:53:38;12.85;;;7.10;;
55007;SDS011;40902;45.116;21.296;2022-12-10T01:56:03;11.50;;;6.50;;
55007;SDS011;40902;45.116;21.296;2022-12-10T01:58:29;13.60;;;6.85;;
55007;SDS011;40902;45.116;21.296;2022-12-10T02:00:58;13.75;;;6.88;;
55007;SDS011;40902;45.116;21.296;2022-12-10T02:17:37;16.85;;;7.03;;
55007;SDS011;40902;45.116;21.296;2022-12-10T02:22:46;9.80;;;6.50;;
55007;SDS011;40902;45.116;21.296;2022-12-10T02:25:19;11.55;;;6.43;;
55007;SDS011;40902;45.116;21.296;2022-12-10T02:27:57;13.43;;;6.80;;
55007;SDS011;40902;45.116;21.296;2022-12-10T02:30:36;15.55;;;6.68;;
55007;SDS011;40902;45.116;21.296;2022-12-10T02:33:04;10.63;;;6.63;;
55007;SDS011;40902;45.116;21.296;2022-12-10T02:35:33;12.73;;;7.05;;
55007;SDS011;40902;45.116;21.296;2022-12-10T02:38:06;11.98;;;6.63;;
55007;SDS011;40902;45.116;21.296;2022-12-10T02:40:48;14.70;;;6.93;;
55007;SDS011;40902;45.116;21.296;2022-12-10T02:43:18;14.32;;;6.90;;
55007;SDS011;40902;45.116;21.296;2022-12-10T02:45:46;12.32;;;7.20;;
55007;SDS011;40902;45.116;21.296;2022-12-10T02:48:12;11.43;;;6.93;;
55007;SDS011;40902;45.116;21.296;2022-12-10T02:50:39;13.57;;;6.70;;
55007;SDS011;40902;45.116;21.296;2022-12-10T02:53:05;12.48;;;7.68;;
55007;SDS011;40902;45.116;21.296;2022-12-10T02:55:35;12.25;;;6.90;;
55007;SDS011;40902;45.116;21.296;2022-12-10T02:58:15;12.60;;;8.18;;
55007;SDS011;40902;45.116;21.296;2022-12-10T03:04:01;11.75;;;7.10;;
55007;SDS011;40902;45.116;21.296;2022-12-10T03:06:44;11.35;;;7.43;;
55007;SDS011;40902;45.116;21.296;2022-12-10T03:09:17;14.00;;;6.93;;
55007;SDS011;40902;45.116;21.296;2022-12-10T03:11:59;11.32;;;7.65;;
55007;SDS011;40902;45.116;21.296;2022-12-10T03:14:31;15.15;;;7.13;;
55007;SDS011;40902;45.116;21.296;2022-12-10T03:16:59;9.68;;;6.28;;
55007;SDS011;40902;45.116;21.296;2022-12-10T03:19:34;11.18;;;6.15;;
55007;SDS011;40902;45.116;21.296;2022-12-10T03:22:05;13.13;;;7.18;;
55007;SDS011;40902;45.116;21.296;2022-12-10T03:24:34;13.00;;;7.15;;
55007;SDS011;40902;45.116;21.296;2022-12-10T03:27:00;16.50;;;7.25;;
55007;SDS011;40902;45.116;21.296;2022-12-10T03:29:48;11.63;;;5.97;;
55007;SDS011;40902;45.116;21.296;2022-12-10T03:32:17;13.95;;;6.78;;
55007;SDS011;40902;45.116;21.296;2022-12-10T03:34:45;12.02;;;6.68;;
55007;SDS011;40902;45.116;21.296;2022-12-10T03:37:11;9.95;;;6.30;;
55007;SDS011;40902;45.116;21.296;2022-12-10T03:39:38;11.68;;;6.78;;
55007;SDS011;40902;45.116;21.296;2022-12-10T03:42:05;10.13;;;6.03;;
55007;SDS011;40902;45.116;21.296;2022-12-10T03:44:31;13.38;;;7.05;;
55007;SDS011;40902;45.116;21.296;2022-12-10T03:46:59;9.98;;;6.45;;
55007;SDS011;40902;45.116;21.296;2022-12-10T03:49:26;11.38;;;6.70;;
55007;SDS011;40902;45.116;21.296;2022-12-10T03:51:52;15.10;;;7.07;;
55007;SDS011;40902;45.116;21.296;2022-12-10T03:54:18;10.63;;;6.20;;
55007;SDS011;40902;45.116;21.296;2022-12-10T03:56:44;12.07;;;7.22;;
55007;SDS011;40902;45.116;21.296;2022-12-10T03:59:10;9.98;;;6.32;;
55007;SDS011;40902;45.116;21.296;2022-12-10T04:01:35;13.02;;;6.80;;
55007;SDS011;40902;45.116;21.296;2022-12-10T04:04:02;14.63;;;7.63;;
55007;SDS011;40902;45.116;21.296;2022-12-10T04:06:29;11.85;;;6.13;;
55007;SDS011;40902;45.116;21.296;2022-12-10T04:08:55;15.40;;;6.15;;
55007;SDS011;40902;45.116;21.296;2022-12-10T04:11:20;14.43;;;6.22;;
55007;SDS011;40902;45.116;21.296;2022-12-10T04:13:46;14.43;;;6.38;;
55007;SDS011;40902;45.116;21.296;2022-12-10T04:16:31;11.98;;;5.85;;
55007;SDS011;40902;45.116;21.296;2022-12-10T04:19:02;12.63;;;5.97;;
55007;SDS011;40902;45.116;21.296;2022-12-10T04:21:33;13.35;;;5.82;;
55007;SDS011;40902;45.116;21.296;2022-12-10T04:24:20;12.40;;;5.50;;
55007;SDS011;40902;45.116;21.296;2022-12-10T04:27:10;13.32;;;6.13;;
55007;SDS011;40902;45.116;21.296;2022-12-10T04:29:37;10.45;;;6.18;;
55007;SDS011;40902;45.116;21.296;2022-12-10T04:32:02;12.45;;;5.85;;
55007;SDS011;40902;45.116;21.296;2022-12-10T04:34:28;11.63;;;6.43;;
55007;SDS011;40902;45.116;21.296;2022-12-10T04:36:54;11.80;;;6.00;;
55007;SDS011;40902;45.116;21.296;2022-12-10T04:39:21;11.90;;;6.70;;
55007;SDS011;40902;45.116;21.296;2022-12-10T04:41:48;12.88;;;6.28;;
55007;SDS011;40902;45.116;21.296;2022-12-10T04:44:14;13.55;;;5.82;;
55007;SDS011;40902;45.116;21.296;2022-12-10T04:46:40;14.18;;;6.32;;
55007;SDS011;40902;45.116;21.296;2022-12-10T04:49:06;11.95;;;5.68;;
55007;SDS011;40902;45.116;21.296;2022-12-10T04:51:32;11.90;;;6.68;;
55007;SDS011;40902;45.116;21.296;2022-12-10T04:53:58;11.32;;;6.18;;
55007;SDS011;40902;45.116;21.296;2022-12-10T04:56:24;10.48;;;6.18;;
55007;SDS011;40902;45.116;21.296;2022-12-10T04:58:50;12.10;;;5.80;;
55007;SDS011;40902;45.116;21.296;2022-12-10T05:01:16;11.13;;;5.53;;
55007;SDS011;40902;45.116;21.296;2022-12-10T05:03:43;14.65;;;6.10;;
55007;SDS011;40902;45.116;21.296;2022-12-10T05:06:10;12.32;;;5.95;;
55007;SDS011;40902;45.116;21.296;2022-12-10T05:08:38;11.45;;;6.05;;
55007;SDS011;40902;45.116;21.296;2022-12-10T05:11:05;13.00;;;5.93;;
55007;SDS011;40902;45.116;21.296;2022-12-10T05:13:34;12.00;;;6.35;;
55007;SDS011;40902;45.116;21.296;2022-12-10T05:16:03;13.38;;;5.90;;
55007;SDS011;40902;45.116;21.296;2022-12-10T05:18:30;18.20;;;6.47;;
55007;SDS011;40902;45.116;21.296;2022-12-10T05:21:03;10.82;;;5.93;;
55007;SDS011;40902;45.116;21.296;2022-12-10T05:23:30;15.70;;;5.72;;
55007;SDS011;40902;45.116;21.296;2022-12-10T05:28:28;10.80;;;5.82;;
55007;SDS011;40902;45.116;21.296;2022-12-10T05:30:55;13.27;;;6.47;;
55007;SDS011;40902;45.116;21.296;2022-12-10T05:33:21;15.50;;;6.38;;
55007;SDS011;40902;45.116;21.296;2022-12-10T05:35:54;9.80;;;5.50;;
55007;SDS011;40902;45.116;21.296;2022-12-10T05:38:21;12.82;;;6.05;;
55007;SDS011;40902;45.116;21.296;2022-12-10T05:40:47;12.85;;;5.75;;
55007;SDS011;40902;45.116;21.296;2022-12-10T05:43:13;11.00;;;5.50;;
55007;SDS011;40902;45.116;21.296;2022-12-10T05:45:39;14.57;;;5.82;;
55007;SDS011;40902;45.116;21.296;2022-12-10T05:48:05;11.45;;;5.63;;
55007;SDS011;40902;45.116;21.296;2022-12-10T05:50:31;9.25;;;5.72;;
55007;SDS011;40902;45.116;21.296;2022-12-10T05:52:57;10.15;;;5.57;;
55007;SDS011;40902;45.116;21.296;2022-12-10T05:55:23;12.23;;;6.05;;
55007;SDS011;40902;45.116;21.296;2022-12-10T05:57:50;15.30;;;5.88;;
55007;SDS011;40902;45.116;21.296;2022-12-10T06:00:15;11.60;;;6.63;;
55007;SDS011;40902;45.116;21.296;2022-12-10T06:02:41;11.48;;;5.95;;
55007;SDS011;40902;45.116;21.296;2022-12-10T06:05:07;10.45;;;6.35;;
55007;SDS011;40902;45.116;21.296;2022-12-10T06:07:33;11.50;;;6.38;;
55007;SDS011;40902;45.116;21.296;2022-12-10T06:09:58;12.05;;;6.50;;
55007;SDS011;40902;45.116;21.296;2022-12-10T06:12:25;11.02;;;6.47;;
55007;SDS011;40902;45.116;21.296;2022-12-10T06:14:51;13.68;;;7.18;;
55007;SDS011;40902;45.116;21.296;2022-12-10T06:17:16;17.08;;;9.07;;
55007;SDS011;40902;45.116;21.296;2022-12-10T06:19:42;12.38;;;6.72;;
55007;SDS011;40902;45.116;21.296;2022-12-10T06:22:08;12.52;;;6.00;;
55007;SDS011;40902;45.116;21.296;2022-12-10T06:24:33;11.10;;;6.97;;
55007;SDS011;40902;45.116;21.296;2022-12-10T06:26:59;13.20;;;6.20;;
55007;SDS011;40902;45.116;21.296;2022-12-10T06:29:25;14.38;;;6.32;;
55007;SDS011;40902;45.116;21.296;2022-12-10T06:31:51;13.02;;;6.18;;
55007;SDS011;40902;45.116;21.296;2022-12-10T06:34:17;11.50;;;6.10;;
55007;SDS011;40902;45.116;21.296;2022-12-10T06:36:42;10.70;;;6.93;;
55007;SDS011;40902;45.116;21.296;2022-12-10T06:39:09;13.98;;;7.45;;
55007;SDS011;40902;45.116;21.296;2022-12-10T06:41:35;11.40;;;6.35;;
55007;SDS011;40902;45.116;21.296;2022-12-10T06:44:01;10.95;;;5.72;;
55007;SDS011;40902;45.116;21.296;2022-12-10T06:46:27;12.82;;;6.70;;
55007;SDS011;40902;45.116;21.296;2022-12-10T06:48:53;15.13;;;7.03;;
55007;SDS011;40902;45.116;21.296;2022-12-10T06:51:19;10.40;;;6.50;;
55007;SDS011;40902;45.116;21.296;2022-12-10T06:53:44;11.30;;;6.07;;
55007;SDS011;40902;45.116;21.296;2022-12-10T06:56:15;15.27;;;7.15;;
55007;SDS011;40902;45.116;21.296;2022-12-10T06:58:42;15.60;;;6.13;;
55007;SDS011;40902;45.116;21.296;2022-12-10T07:01:13;13.27;;;6.22;;
55007;SDS011;40902;45.116;21.296;2022-12-10T07:03:47;13.48;;;7.10;;
55007;SDS011;40902;45.116;21.296;2022-12-10T07:06:17;11.13;;;6.15;;
55007;SDS011;40902;45.116;21.296;2022-12-10T07:08:43;10.23;;;6.28;;
55007;SDS011;40902;45.116;21.296;2022-12-10T07:11:11;11.25;;;6.07;;
55007;SDS011;40902;45.116;21.296;2022-12-10T07:13:38;12.43;;;6.60;;
55007;SDS011;40902;45.116;21.296;2022-12-10T07:16:15;10.30;;;6.32;;
55007;SDS011;40902;45.116;21.296;2022-12-10T07:18:42;12.52;;;6.75;;
55007;SDS011;40902;45.116;21.296;2022-12-10T07:21:15;11.98;;;6.72;;
55007;SDS011;40902;45.116;21.296;2022-12-10T07:23:52;14.10;;;6.67;;
55007;SDS011;40902;45.116;21.296;2022-12-10T07:26:22;11.85;;;6.25;;
55007;SDS011;40902;45.116;21.296;2022-12-10T07:28:49;14.10;;;7.20;;
55007;SDS011;40902;45.116;21.296;2022-12-10T07:31:15;9.60;;;6.38;;
55007;SDS011;40902;45.116;21.296;2022-12-10T07:33:41;12.65;;;6.50;;
55007;SDS011;40902;45.116;21.296;2022-12-10T07:36:10;11.75;;;7.13;;
55007;SDS011;40902;45.116;21.296;2022-12-10T07:38:37;12.65;;;6.60;;
55007;SDS011;40902;45.116;21.296;2022-12-10T07:41:04;13.35;;;7.07;;
55007;SDS011;40902;45.116;21.296;2022-12-10T07:43:32;12.95;;;6.65;;
55007;SDS011;40902;45.116;21.296;2022-12-10T07:46:06;11.90;;;6.25;;
55007;SDS011;40902;45.116;21.296;2022-12-10T07:48:34;11.48;;;5.78;;
55007;SDS011;40902;45.116;21.296;2022-12-10T07:51:01;12.43;;;6.40;;
55007;SDS011;40902;45.116;21.296;2022-12-10T07:53:26;10.77;;;6.57;;
55007;SDS011;40902;45.116;21.296;2022-12-10T07:55:52;11.05;;;6.63;;
55007;SDS011;40902;45.116;21.296;2022-12-10T07:58:18;11.50;;;5.90;;
55007;SDS011;40902;45.116;21.296;2022-12-10T08:00:43;13.07;;;7.15;;
55007;SDS011;40902;45.116;21.296;2022-12-10T08:03:09;13.10;;;7.50;;
55007;SDS011;40902;45.116;21.296;2022-12-10T08:05:35;11.05;;;6.93;;
55007;SDS011;40902;45.116;21.296;2022-12-10T08:08:01;11.60;;;7.07;;
55007;SDS011;40902;45.116;21.296;2022-12-10T08:10:27;15.65;;;7.93;;
55007;SDS011;40902;45.116;21.296;2022-12-10T08:12:52;13.55;;;7.80;;
55007;SDS011;40902;45.116;21.296;2022-12-10T08:15:18;12.60;;;7.45;;
55007;SDS011;40902;45.116;21.296;2022-12-10T08:17:44;12.30;;;7.78;;
55007;SDS011;40902;45.116;21.296;2022-12-10T08:20:09;13.35;;;8.23;;
55007;SDS011;40902;45.116;21.296;2022-12-10T08:22:35;13.60;;;6.90;;
55007;SDS011;40902;45.116;21.296;2022-12-10T08:25:01;18.40;;;9.10;;
55007;SDS011;40902;45.116;21.296;2022-12-10T08:27:28;14.90;;;8.32;;
55007;SDS011;40902;45.116;21.296;2022-12-10T08:29:53;14.63;;;7.82;;
55007;SDS011;40902;45.116;21.296;2022-12-10T08:32:19;11.85;;;7.40;;
55007;SDS011;40902;45.116;21.296;2022-12-10T08:34:45;12.95;;;8.18;;
55007;SDS011;40902;45.116;21.296;2022-12-10T08:37:10;13.27;;;7.68;;
55007;SDS011;40902;45.116;21.296;2022-12-10T08:39:36;16.02;;;7.63;;
55007;SDS011;40902;45.116;21.296;2022-12-10T08:42:02;10.88;;;7.35;;
55007;SDS011;40902;45.116;21.296;2022-12-10T08:44:28;12.43;;;7.82;;
55007;SDS011;40902;45.116;21.296;2022-12-10T08:46:53;12.82;;;7.20;;
55007;SDS011;40902;45.116;21.296;2022-12-10T08:49:19;12.15;;;7.63;;
55007;SDS011;40902;45.116;21.296;2022-12-10T08:51:45;12.68;;;7.40;;
55007;SDS011;40902;45.116;21.296;2022-12-10T08:54:11;13.73;;;7.57;;
55007;SDS011;40902;45.116;21.296;2022-12-10T08:56:37;12.38;;;7.93;;
55007;SDS011;40902;45.116;21.296;2022-12-10T08:59:04;16.25;;;9.02;;
55007;SDS011;40902;45.116;21.296;2022-12-10T09:01:30;16.13;;;9.85;;
55007;SDS011;40902;45.116;21.296;2022-12-10T09:03:56;15.98;;;8.90;;
55007;SDS011;40902;45.116;21.296;2022-12-10T09:06:22;13.70;;;9.20;;
55007;SDS011;40902;45.116;21.296;2022-12-10T09:08:51;15.57;;;9.00;;
55007;SDS011;40902;45.116;21.296;2022-12-10T09:11:28;17.88;;;10.07;;
55007;SDS011;40902;45.116;21.296;2022-12-10T09:13:56;41.22;;;22.52;;
55007;SDS011;40902;45.116;21.296;2022-12-10T09:16:27;26.30;;;16.25;;
55007;SDS011;40902;45.116;21.296;2022-12-10T09:18:54;14.20;;;9.32;;
55007;SDS011;40902;45.116;21.296;2022-12-10T09:21:20;14.63;;;8.40;;
55007;SDS011;40902;45.116;21.296;2022-12-10T09:23:46;14.25;;;8.43;;
55007;SDS011;40902;45.116;21.296;2022-12-10T09:26:12;16.00;;;9.45;;
55007;SDS011;40902;45.116;21.296;2022-12-10T09:28:40;15.30;;;9.57;;
55007;SDS011;40902;45.116;21.296;2022-12-10T09:31:06;14.20;;;9.30;;
55007;SDS011;40902;45.116;21.296;2022-12-10T09:33:33;20.48;;;10.50;;
55007;SDS011;40902;45.116;21.296;2022-12-10T09:35:59;15.98;;;9.45;;
55007;SDS011;40902;45.116;21.296;2022-12-10T09:38:28;16.35;;;9.18;;
55007;SDS011;40902;45.116;21.296;2022-12-10T09:40:58;13.75;;;8.95;;
55007;SDS011;40902;45.116;21.296;2022-12-10T09:46:28;15.40;;;9.57;;
55007;SDS011;40902;45.116;21.296;2022-12-10T09:51:41;13.65;;;8.85;;
55007;SDS011;40902;45.116;21.296;2022-12-10T09:54:24;16.08;;;8.85;;
55007;SDS011;40902;45.116;21.296;2022-12-10T09:56:53;14.90;;;9.20;;
55007;SDS011;40902;45.116;21.296;2022-12-10T10:04:38;15.02;;;8.23;;
55007;SDS011;40902;45.116;21.296;2022-12-10T10:07:04;14.95;;;8.10;;
55007;SDS011;40902;45.116;21.296;2022-12-10T10:09:31;13.73;;;8.50;;
55007;SDS011;40902;45.116;21.296;2022-12-10T10:12:07;15.27;;;8.68;;
55007;SDS011;40902;45.116;21.296;2022-12-10T10:14:38;17.13;;;9.40;;
55007;SDS011;40902;45.116;21.296;2022-12-10T10:17:07;13.32;;;8.55;;
55007;SDS011;40902;45.116;21.296;2022-12-10T10:19:38;11.52;;;8.05;;
55007;SDS011;40902;45.116;21.296;2022-12-10T10:22:06;11.93;;;8.35;;
55007;SDS011;40902;45.116;21.296;2022-12-10T10:24:35;17.00;;;10.05;;
55007;SDS011;40902;45.116;21.296;2022-12-10T10:29:37;14.35;;;9.55;;
55007;SDS011;40902;45.116;21.296;2022-12-10T10:32:22;13.13;;;7.75;;
55007;SDS011;40902;45.116;21.296;2022-12-10T10:35:00;14.35;;;8.30;;
55007;SDS011;40902;45.116;21.296;2022-12-10T10:39:55;13.43;;;7.45;;
55007;SDS011;40902;45.116;21.296;2022-12-10T10:42:43;12.32;;;7.30;;
55007;SDS011;40902;45.116;21.296;2022-12-10T10:45:32;12.65;;;8.13;;
55007;SDS011;40902;45.116;21.296;2022-12-10T10:50:38;13.25;;;7.65;;
55007;SDS011;40902;45.116;21.296;2022-12-10T10:56:12;11.95;;;7.53;;
55007;SDS011;40902;45.116;21.296;2022-12-10T11:01:27;22.95;;;10.13;;
55007;SDS011;40902;45.116;21.296;2022-12-10T11:04:37;15.48;;;7.45;;
55007;SDS011;40902;45.116;21.296;2022-12-10T11:07:35;10.50;;;7.43;;
55007;SDS011;40902;45.116;21.296;2022-12-10T11:10:16;12.68;;;8.00;;
55007;SDS011;40902;45.116;21.296;2022-12-10T11:12:44;12.70;;;7.28;;
55007;SDS011;40902;45.116;21.296;2022-12-10T11:17:48;15.00;;;7.80;;
55007;SDS011;40902;45.116;21.296;2022-12-10T11:20:17;16.15;;;8.73;;
55007;SDS011;40902;45.116;21.296;2022-12-10T11:22:53;14.52;;;8.63;;
55007;SDS011;40902;45.116;21.296;2022-12-10T11:25:30;16.02;;;8.90;;
55007;SDS011;40902;45.116;21.296;2022-12-10T11:33:55;13.48;;;8.52;;
55007;SDS011;40902;45.116;21.296;2022-12-10T11:36:38;11.63;;;7.55;;
55007;SDS011;40902;45.116;21.296;2022-12-10T11:48:01;17.63;;;8.65;;
55007;SDS011;40902;45.116;21.296;2022-12-10T11:50:45;16.80;;;8.77;;
55007;SDS011;40902;45.116;21.296;2022-12-10T11:53:31;16.63;;;9.18;;
55007;SDS011;40902;45.116;21.296;2022-12-10T11:56:26;15.23;;;8.00;;
55007;SDS011;40902;45.116;21.296;2022-12-10T12:13:01;17.77;;;8.57;;
55007;SDS011;40902;45.116;21.296;2022-12-10T12:18:25;13.75;;;8.15;;
55007;SDS011;40902;45.116;21.296;2022-12-10T12:21:10;17.48;;;8.70;;
55007;SDS011;40902;45.116;21.296;2022-12-10T12:31:39;19.58;;;10.30;;
55007;SDS011;40902;45.116;21.296;2022-12-10T12:36:46;13.57;;;8.23;;
55007;SDS011;40902;45.116;21.296;2022-12-10T12:42:09;18.75;;;8.35;;
55007;SDS011;40902;45.116;21.296;2022-12-10T12:44:52;13.88;;;8.27;;
55007;SDS011;40902;45.116;21.296;2022-12-10T12:47:41;20.65;;;9.98;;
55007;SDS011;40902;45.116;21.296;2022-12-10T12:53:15;21.33;;;9.13;;
55007;SDS011;40902;45.116;21.296;2022-12-10T12:58:34;14.52;;;8.15;;
55007;SDS011;40902;45.116;21.296;2022-12-10T13:03:43;20.33;;;9.73;;
55007;SDS011;40902;45.116;21.296;2022-12-10T13:06:23;17.38;;;8.40;;
55007;SDS011;40902;45.116;21.296;2022-12-10T13:11:38;13.38;;;8.05;;
55007;SDS011;40902;45.116;21.296;2022-12-10T13:27:10;24.58;;;13.27;;
55007;SDS011;40902;45.116;21.296;2022-12-10T13:32:51;15.98;;;8.38;;
55007;SDS011;40902;45.116;21.296;2022-12-10T13:35:29;19.27;;;11.48;;
55007;SDS011;40902;45.116;21.296;2022-12-10T13:38:04;16.15;;;8.38;;
55007;SDS011;40902;45.116;21.296;2022-12-10T13:40:42;14.95;;;7.65;;
55007;SDS011;40902;45.116;21.296;2022-12-10T13:46:21;17.00;;;9.07;;
55007;SDS011;40902;45.116;21.296;2022-12-10T13:48:47;15.73;;;9.88;;
55007;SDS011;40902;45.116;21.296;2022-12-10T13:57:25;14.55;;;7.85;;
55007;SDS011;40902;45.116;21.296;2022-12-10T14:00:23;15.30;;;7.45;;
55007;SDS011;40902;45.116;21.296;2022-12-10T14:03:04;13.63;;;7.40;;
55007;SDS011;40902;45.116;21.296;2022-12-10T14:08:32;15.98;;;8.05;;
55007;SDS011;40902;45.116;21.296;2022-12-10T14:11:01;21.85;;;8.60;;
55007;SDS011;40902;45.116;21.296;2022-12-10T14:13:32;18.70;;;9.73;;
55007;SDS011;40902;45.116;21.296;2022-12-10T14:16:03;15.82;;;8.45;;
55007;SDS011;40902;45.116;21.296;2022-12-10T14:18:34;12.88;;;7.32;;
55007;SDS011;40902;45.116;21.296;2022-12-10T14:21:02;12.30;;;7.20;;
55007;SDS011;40902;45.116;21.296;2022-12-10T14:23:32;16.10;;;9.10;;
55007;SDS011;40902;45.116;21.296;2022-12-10T14:29:12;24.50;;;13.32;;
55007;SDS011;40902;45.116;21.296;2022-12-10T14:31:44;18.50;;;10.93;;
55007;SDS011;40902;45.116;21.296;2022-12-10T14:34:14;16.10;;;10.85;;
55007;SDS011;40902;45.116;21.296;2022-12-10T14:36:54;16.10;;;8.23;;
55007;SDS011;40902;45.116;21.296;2022-12-10T14:39:22;15.70;;;8.95;;
55007;SDS011;40902;45.116;21.296;2022-12-10T14:41:55;19.73;;;8.50;;
55007;SDS011;40902;45.116;21.296;2022-12-10T14:44:26;23.33;;;13.30;;
55007;SDS011;40902;45.116;21.296;2022-12-10T14:47:05;29.58;;;16.77;;
55007;SDS011;40902;45.116;21.296;2022-12-10T14:49:40;22.65;;;14.25;;
55007;SDS011;40902;45.116;21.296;2022-12-10T14:52:15;20.13;;;11.68;;
55007;SDS011;40902;45.116;21.296;2022-12-10T14:54:43;19.30;;;10.55;;
55007;SDS011;40902;45.116;21.296;2022-12-10T14:57:24;19.98;;;11.82;;
55007;SDS011;40902;45.116;21.296;2022-12-10T15:02:29;19.50;;;10.40;;
55007;SDS011;40902;45.116;21.296;2022-12-10T15:04:58;21.10;;;10.65;;
55007;SDS011;40902;45.116;21.296;2022-12-10T15:07:30;19.95;;;9.80;;
55007;SDS011;40902;45.116;21.296;2022-12-10T15:10:00;16.88;;;9.52;;
55007;SDS011;40902;45.116;21.296;2022-12-10T15:12:30;18.95;;;9.88;;
55007;SDS011;40902;45.116;21.296;2022-12-10T15:15:06;21.33;;;10.60;;
55007;SDS011;40902;45.116;21.296;2022-12-10T15:17:41;14.30;;;8.23;;
55007;SDS011;40902;45.116;21.296;2022-12-10T15:20:22;21.02;;;10.27;;
55007;SDS011;40902;45.116;21.296;2022-12-10T15:22:50;16.67;;;8.38;;
55007;SDS011;40902;45.116;21.296;2022-12-10T15:25:24;18.02;;;9.13;;
55007;SDS011;40902;45.116;21.296;2022-12-10T15:27:52;21.52;;;9.30;;
55007;SDS011;40902;45.116;21.296;2022-12-10T15:30:34;19.40;;;8.32;;
55007;SDS011;40902;45.116;21.296;2022-12-10T15:33:02;20.77;;;8.10;;
55007;SDS011;40902;45.116;21.296;2022-12-10T15:35:58;19.42;;;9.13;;
55007;SDS011;40902;45.116;21.296;2022-12-10T15:38:25;16.75;;;8.10;;
55007;SDS011;40902;45.116;21.296;2022-12-10T15:40:51;18.35;;;8.40;;
55007;SDS011;40902;45.116;21.296;2022-12-10T15:45:57;16.60;;;9.70;;
55007;SDS011;40902;45.116;21.296;2022-12-10T15:48:24;18.55;;;8.95;;
55007;SDS011;40902;45.116;21.296;2022-12-10T15:50:53;17.80;;;8.55;;
55007;SDS011;40902;45.116;21.296;2022-12-10T15:53:22;13.93;;;7.82;;
55007;SDS011;40902;45.116;21.296;2022-12-10T15:55:51;19.25;;;8.48;;
55007;SDS011;40902;45.116;21.296;2022-12-10T15:58:16;20.88;;;8.65;;
55007;SDS011;40902;45.116;21.296;2022-12-10T16:00:42;12.85;;;8.02;;
55007;SDS011;40902;45.116;21.296;2022-12-10T16:03:15;18.80;;;9.23;;
55007;SDS011;40902;45.116;21.296;2022-12-10T16:05:43;19.35;;;8.48;;
55007;SDS011;40902;45.116;21.296;2022-12-10T16:08:19;16.48;;;8.70;;
55007;SDS011;40902;45.116;21.296;2022-12-10T16:10:47;20.73;;;7.97;;
55007;SDS011;40902;45.116;21.296;2022-12-10T16:13:18;16.65;;;7.90;;
55007;SDS011;40902;45.116;21.296;2022-12-10T16:15:51;16.23;;;7.57;;
55007;SDS011;40902;45.116;21.296;2022-12-10T16:18:18;15.40;;;7.97;;
55007;SDS011;40902;45.116;21.296;2022-12-10T16:20:44;15.82;;;8.30;;
55007;SDS011;40902;45.116;21.296;2022-12-10T16:23:10;15.85;;;8.45;;
55007;SDS011;40902;45.116;21.296;2022-12-10T16:25:37;20.05;;;9.73;;
55007;SDS011;40902;45.116;21.296;2022-12-10T16:28:09;20.92;;;9.32;;
55007;SDS011;40902;45.116;21.296;2022-12-10T16:30:39;18.33;;;8.50;;
55007;SDS011;40902;45.116;21.296;2022-12-10T16:33:11;20.42;;;10.13;;
55007;SDS011;40902;45.116;21.296;2022-12-10T16:35:37;16.08;;;8.38;;
55007;SDS011;40902;45.116;21.296;2022-12-10T16:38:04;18.33;;;8.85;;
55007;SDS011;40902;45.116;21.296;2022-12-10T16:40:29;24.02;;;8.65;;
55007;SDS011;40902;45.116;21.296;2022-12-10T16:42:55;15.85;;;9.68;;
55007;SDS011;40902;45.116;21.296;2022-12-10T16:47:47;16.17;;;8.25;;
55007;SDS011;40902;45.116;21.296;2022-12-10T16:50:13;20.40;;;7.82;;
55007;SDS011;40902;45.116;21.296;2022-12-10T16:52:40;13.18;;;7.10;;
55007;SDS011;40902;45.116;21.296;2022-12-10T16:55:09;14.60;;;8.52;;
55007;SDS011;40902;45.116;21.296;2022-12-10T16:57:38;20.15;;;12.45;;
55007;SDS011;40902;45.116;21.296;2022-12-10T17:00:08;15.90;;;9.35;;
55007;SDS011;40902;45.116;21.296;2022-12-10T17:02:34;11.15;;;7.57;;
55007;SDS011;40902;45.116;21.296;2022-12-10T17:05:00;15.30;;;7.90;;